Time,TemperatureF,DewpointF,PressureIn,WindDirection,WindDirectionDegrees,WindSpeedMPH,WindSpeedGustMPH,Humidity,HourlyPrecipIn,Conditions,Clouds,dailyrainin,SoftwareType,DateUTC
2013-04-02 00:02:00,24.4,18.0,30.14,NW,307,0.0,2.0,75,0.00,,,0.00,weatherlink.com 1.10,2013-04-02 04:02:00,
2013-04-02 00:17:00,24.2,17.0,30.14,NW,307,0.0,0.0,75,0.00,,,0.00,weatherlink.com 1.10,2013-04-02 04:17:00,
2013-04-02 00:47:00,23.7,18.0,30.15,NW,307,0.0,0.0,79,0.00,,,0.00,weatherlink.com 1.10,2013-04-02 04:47:00,
2013-04-02 01:02:00,23.5,18.0,30.15,NW,307,0.0,0.0,78,0.00,,,0.00,weatherlink.com 1.10,2013-04-02 05:02:00,
2013-04-02 01:17:00,22.6,17.0,30.15,NW,307,0.0,0.0,79,0.00,,,0.00,weatherlink.com 1.10,2013-04-02 05:17:00,
2013-04-02 01:32:00,22.6,18.0,30.15,NW,307,0.0,0.0,83,0.00,,,0.00,weatherlink.com 1.10,2013-04-02 05:32:00,
2013-04-02 01:47:00,23.6,19.0,30.15,NW,307,0.0,1.0,82,0.00,,,0.00,weatherlink.com 1.10,2013-04-02 05:47:00,
2013-04-02 02:02:00,24.4,19.0,30.15,NW,307,0.0,1.0,80,0.00,,,0.00,weatherlink.com 1.10,2013-04-02 06:02:00,
2013-04-02 02:17:00,24.2,19.0,30.15,NW,307,0.0,0.0,79,0.00,,,0.00,weatherlink.com 1.10,2013-04-02 06:17:00,
2013-04-02 02:32:00,23.3,18.0,30.16,NW,307,0.0,0.0,80,0.00,,,0.00,weatherlink.com 1.10,2013-04-02 06:32:00,
2013-04-02 02:47:00,22.7,18.0,30.15,NW,307,0.0,0.0,81,0.00,,,0.00,weatherlink.com 1.10,2013-04-02 06:47:00,
2013-04-02 03:02:00,22.4,18.0,30.16,NW,307,0.0,0.0,83,0.00,,,0.00,weatherlink.com 1.10,2013-04-02 07:02:00,
2013-04-02 03:17:00,22.0,18.0,30.15,NW,307,0.0,0.0,84,0.00,,,0.00,weatherlink.com 1.10,2013-04-02 07:17:00,
2013-04-02 03:32:00,22.6,18.0,30.16,NW,307,0.0,1.0,82,0.00,,,0.00,weatherlink.com 1.10,2013-04-02 07:32:00,
2013-04-02 03:47:00,22.4,18.0,30.16,NW,307,0.0,0.0,82,0.00,,,0.00,weatherlink.com 1.10,2013-04-02 07:47:00,
2013-04-02 04:02:00,20.6,16.0,30.17,NNW,338,5.0,8.0,82,0.00,,,0.00,weatherlink.com 1.10,2013-04-02 08:02:00,
2013-04-02 04:17:00,22.7,18.0,30.17,NW,320,3.0,7.0,81,0.00,,,0.00,weatherlink.com 1.10,2013-04-02 08:17:00,
2013-04-02 04:32:00,22.5,18.0,30.16,NW,320,0.0,2.0,81,0.00,,,0.00,weatherlink.com 1.10,2013-04-02 08:32:00,
2013-04-02 04:47:00,22.7,18.0,30.16,NW,320,0.0,0.0,82,0.00,,,0.00,weatherlink.com 1.10,2013-04-02 08:47:00,
2013-04-02 05:02:00,22.7,18.0,30.16,NW,320,0.0,1.0,82,0.00,,,0.00,weatherlink.com 1.10,2013-04-02 09:02:00,
2013-04-02 05:17:00,22.0,18.0,30.17,NW,320,0.0,1.0,83,0.00,,,0.00,weatherlink.com 1.10,2013-04-02 09:17:00,
2013-04-02 05:32:00,21.5,17.0,30.17,NW,320,0.0,0.0,84,0.00,,,0.00,weatherlink.com 1.10,2013-04-02 09:32:00,
2013-04-02 05:47:00,21.3,17.0,30.18,NW,320,0.0,0.0,84,0.00,,,0.00,weatherlink.com 1.10,2013-04-02 09:47:00,
2013-04-02 06:02:00,20.7,17.0,30.18,NW,320,1.0,1.0,85,0.00,,,0.00,weatherlink.com 1.10,2013-04-02 10:02:00,
2013-04-02 06:17:00,20.9,17.0,30.19,NW,320,0.0,0.0,84,0.00,,,0.00,weatherlink.com 1.10,2013-04-02 10:17:00,
2013-04-02 06:33:00,20.0,16.0,30.19,NW,320,0.0,0.0,85,0.00,,,0.00,weatherlink.com 1.10,2013-04-02 10:33:00,
2013-04-02 06:48:00,19.3,16.0,30.20,NW,320,0.0,0.0,87,0.00,,,0.00,weatherlink.com 1.10,2013-04-02 10:48:00,
2013-04-02 07:03:00,19.0,16.0,30.20,NW,320,0.0,0.0,87,0.00,,,0.00,weatherlink.com 1.10,2013-04-02 11:03:00,
2013-04-02 07:18:00,18.9,16.0,30.20,NW,320,0.0,0.0,88,0.00,,,0.00,weatherlink.com 1.10,2013-04-02 11:18:00,
2013-04-02 07:33:00,19.2,17.0,30.21,NW,320,0.0,0.0,89,0.00,,,0.00,weatherlink.com 1.10,2013-04-02 11:33:00,
2013-04-02 07:48:00,19.5,17.0,30.22,NW,320,0.0,0.0,89,0.00,,,0.00,weatherlink.com 1.10,2013-04-02 11:48:00,
2013-04-02 08:03:00,20.9,19.0,30.22,NW,320,0.0,0.0,90,0.00,,,0.00,weatherlink.com 1.10,2013-04-02 12:03:00,
2013-04-02 08:18:00,23.5,21.0,30.23,NW,320,0.0,0.0,88,0.00,,,0.00,weatherlink.com 1.10,2013-04-02 12:18:00,
2013-04-02 08:33:00,25.8,22.0,30.23,WSW,244,1.0,3.0,86,0.00,,,0.00,weatherlink.com 1.10,2013-04-02 12:33:00,
2013-04-02 08:48:00,27.8,23.0,30.24,SW,227,1.0,5.0,81,0.00,,,0.00,weatherlink.com 1.10,2013-04-02 12:48:00,
2013-04-02 09:03:00,29.2,23.0,30.24,West,276,3.0,5.0,77,0.00,,,0.00,weatherlink.com 1.10,2013-04-02 13:03:00,
2013-04-02 09:18:00,29.9,23.0,30.24,West,277,1.0,5.0,75,0.00,,,0.00,weatherlink.com 1.10,2013-04-02 13:18:00,
2013-04-02 09:33:00,31.2,24.0,30.25,WNW,288,0.0,5.0,74,0.00,,,0.00,weatherlink.com 1.10,2013-04-02 13:33:00,
2013-04-02 09:48:00,31.6,23.0,30.25,NW,304,3.0,6.0,70,0.00,,,0.00,weatherlink.com 1.10,2013-04-02 13:48:00,
2013-04-02 10:18:00,33.1,22.0,30.25,WNW,288,3.0,11.0,65,0.00,,,0.00,weatherlink.com 1.10,2013-04-02 14:18:00,
2013-04-02 10:33:00,33.9,21.0,30.25,WNW,298,10.0,11.0,60,0.00,,,0.00,weatherlink.com 1.10,2013-04-02 14:33:00,
2013-04-02 10:48:00,33.7,21.0,30.26,NW,309,7.0,13.0,59,0.00,,,0.00,weatherlink.com 1.10,2013-04-02 14:48:00,
2013-04-02 11:03:00,34.3,19.0,30.26,WNW,288,2.0,14.0,54,0.00,,,0.00,weatherlink.com 1.10,2013-04-02 15:03:00,
2013-04-02 11:19:00,35.5,20.0,30.26,WSW,242,4.0,12.0,53,0.00,,,0.00,weatherlink.com 1.10,2013-04-02 15:19:00,
2013-04-02 11:33:00,34.9,18.0,30.26,NW,313,4.0,12.0,51,0.00,,,0.00,weatherlink.com 1.10,2013-04-02 15:33:00,
2013-04-02 12:03:00,36.1,20.0,30.25,WNW,288,7.0,12.0,53,0.00,,,0.00,weatherlink.com 1.10,2013-04-02 16:03:00,
2013-04-02 12:18:00,36.6,19.0,30.25,WNW,302,10.0,12.0,49,0.00,,,0.00,weatherlink.com 1.10,2013-04-02 16:18:00,
2013-04-02 12:34:00,37.7,20.0,30.25,WNW,298,6.0,12.0,50,0.00,,,0.00,weatherlink.com 1.10,2013-04-02 16:34:00,
2013-04-02 12:49:00,38.2,18.0,30.24,WNW,292,2.0,12.0,45,0.00,,,0.00,weatherlink.com 1.10,2013-04-02 16:49:00,
2013-04-02 13:04:00,39.5,21.0,30.24,WNW,287,4.0,16.0,47,0.00,,,0.00,weatherlink.com 1.10,2013-04-02 17:04:00,
2013-04-02 13:19:00,39.7,19.0,30.23,WNW,295,9.0,17.0,44,0.00,,,0.00,weatherlink.com 1.10,2013-04-02 17:19:00,
2013-04-02 13:34:00,38.8,17.0,30.23,WNW,286,6.0,16.0,42,0.00,,,0.00,weatherlink.com 1.10,2013-04-02 17:34:00,
2013-04-02 13:49:00,40.1,17.0,30.23,WNW,300,5.0,10.0,40,0.00,,,0.00,weatherlink.com 1.10,2013-04-02 17:49:00,
2013-04-02 14:05:00,40.9,19.0,30.22,NW,325,4.0,17.0,41,0.00,,,0.00,weatherlink.com 1.10,2013-04-02 18:05:00,
2013-04-02 14:19:00,40.7,17.0,30.22,WNW,292,8.0,16.0,38,0.00,,,0.00,weatherlink.com 1.10,2013-04-02 18:19:00,
2013-04-02 14:34:00,42.1,17.0,30.21,WNW,296,4.0,15.0,37,0.00,,,0.00,weatherlink.com 1.10,2013-04-02 18:34:00,
2013-04-02 15:04:00,42.7,19.0,30.21,NW,304,8.0,22.0,38,0.00,,,0.00,weatherlink.com 1.10,2013-04-02 19:04:00,
2013-04-02 15:19:00,42.8,17.0,30.21,WNW,293,14.0,24.0,35,0.00,,,0.00,weatherlink.com 1.10,2013-04-02 19:19:00,
2013-04-02 15:34:00,42.0,17.0,30.20,NNW,329,8.0,18.0,36,0.00,,,0.00,weatherlink.com 1.10,2013-04-02 19:34:00,
2013-04-02 15:49:00,42.6,15.0,30.20,West,281,1.0,20.0,33,0.00,,,0.00,weatherlink.com 1.10,2013-04-02 19:49:00,
2013-04-02 16:04:00,42.5,16.0,30.20,WSW,256,5.0,22.0,34,0.00,,,0.00,weatherlink.com 1.10,2013-04-02 20:04:00,
2013-04-02 16:19:00,42.2,15.0,30.20,WNW,301,16.0,22.0,33,0.00,,,0.00,weatherlink.com 1.10,2013-04-02 20:19:00,
2013-04-02 16:34:00,42.1,14.0,30.20,WNW,302,13.0,21.0,32,0.00,,,0.00,weatherlink.com 1.10,2013-04-02 20:34:00,
2013-04-02 17:04:00,41.6,15.0,30.21,NW,307,18.0,24.0,34,0.00,,,0.00,weatherlink.com 1.10,2013-04-02 21:04:00,
2013-04-02 17:34:00,40.7,11.0,30.22,NW,309,20.0,23.0,30,0.00,,,0.00,weatherlink.com 1.10,2013-04-02 21:34:00,
2013-04-02 17:49:00,40.3,10.0,30.22,WNW,286,11.0,20.0,29,0.00,,,0.00,weatherlink.com 1.10,2013-04-02 21:49:00,
2013-04-02 18:04:00,40.1,10.0,30.23,NW,324,17.0,21.0,29,0.00,,,0.00,weatherlink.com 1.10,2013-04-02 22:04:00,
2013-04-02 18:19:00,39.6,10.0,30.23,WNW,289,12.0,20.0,30,0.00,,,0.00,weatherlink.com 1.10,2013-04-02 22:19:00,
2013-04-02 18:34:00,39.6,11.0,30.23,WNW,290,8.0,19.0,31,0.00,,,0.00,weatherlink.com 1.10,2013-04-02 22:34:00,
2013-04-02 18:49:00,39.1,9.0,30.23,WNW,289,11.0,21.0,29,0.00,,,0.00,weatherlink.com 1.10,2013-04-02 22:49:00,
2013-04-02 19:04:00,38.4,9.0,30.23,NW,316,10.0,21.0,29,0.00,,,0.00,weatherlink.com 1.10,2013-04-02 23:04:00,
2013-04-02 19:19:00,38.0,10.0,30.23,WNW,295,15.0,19.0,31,0.00,,,0.00,weatherlink.com 1.10,2013-04-02 23:19:00,
2013-04-02 19:49:00,36.0,11.0,30.24,NW,305,8.0,11.0,35,0.00,,,0.00,weatherlink.com 1.10,2013-04-02 23:49:00,
2013-04-02 20:04:00,34.7,11.0,30.24,NW,322,5.0,9.0,38,0.00,,,0.00,weatherlink.com 1.10,2013-04-03 00:04:00,
2013-04-02 20:19:00,32.2,11.0,30.24,NNW,327,2.0,5.0,42,0.00,,,0.00,weatherlink.com 1.10,2013-04-03 00:19:00,
2013-04-02 20:34:00,32.1,12.0,30.24,NW,323,1.0,5.0,43,0.00,,,0.00,weatherlink.com 1.10,2013-04-03 00:34:00,
2013-04-02 20:49:00,32.4,12.0,30.25,NW,317,0.0,1.0,43,0.00,,,0.00,weatherlink.com 1.10,2013-04-03 00:49:00,
2013-04-02 21:04:00,31.5,12.0,30.25,NW,317,0.0,0.0,45,0.00,,,0.00,weatherlink.com 1.10,2013-04-03 01:04:00,
2013-04-02 21:19:00,30.5,13.0,30.26,NW,317,0.0,0.0,48,0.00,,,0.00,weatherlink.com 1.10,2013-04-03 01:19:00,
2013-04-02 21:34:00,29.6,12.0,30.26,NW,317,0.0,0.0,48,0.00,,,0.00,weatherlink.com 1.10,2013-04-03 01:34:00,
2013-04-02 21:49:00,28.5,14.0,30.27,NW,317,0.0,2.0,54,0.00,,,0.00,weatherlink.com 1.10,2013-04-03 01:49:00,
2013-04-02 22:04:00,29.0,14.0,30.27,NW,317,0.0,2.0,53,0.00,,,0.00,weatherlink.com 1.10,2013-04-03 02:04:00,
2013-04-02 22:19:00,28.9,14.0,30.28,NW,317,0.0,1.0,55,0.00,,,0.00,weatherlink.com 1.10,2013-04-03 02:19:00,
2013-04-02 22:34:00,27.9,14.0,30.28,NW,317,0.0,2.0,57,0.00,,,0.00,weatherlink.com 1.10,2013-04-03 02:34:00,
2013-04-02 22:49:00,27.1,15.0,30.29,NW,317,0.0,1.0,60,0.00,,,0.00,weatherlink.com 1.10,2013-04-03 02:49:00,
2013-04-02 23:04:00,26.5,15.0,30.29,NW,317,1.0,2.0,61,0.00,,,0.00,weatherlink.com 1.10,2013-04-03 03:04:00,
2013-04-02 23:19:00,27.1,15.0,30.29,NW,317,1.0,3.0,61,0.00,,,0.00,weatherlink.com 1.10,2013-04-03 03:19:00,
2013-04-02 23:34:00,27.4,15.0,30.29,NW,317,2.0,2.0,61,0.00,,,0.00,weatherlink.com 1.10,2013-04-03 03:34:00,
2013-04-02 23:49:00,27.9,16.0,30.29,NW,317,0.0,1.0,60,0.00,,,0.00,weatherlink.com 1.10,2013-04-03 03:49:00,